createdAt,value
2023-04-02T00:01:44.040Z,98643.97
2023-04-02T00:04:14.650Z,98642.88
2023-04-02T00:06:45.740Z,98639.59
2023-04-02T00:09:13.349Z,98640.66
2023-04-02T00:11:42.297Z,98642.31
2023-04-02T00:14:23.030Z,98647.78
2023-04-02T00:16:51.860Z,98649.41
2023-04-02T00:19:44.538Z,98648.59
2023-04-02T00:22:20.689Z,98644.22
2023-04-02T00:24:51.008Z,98654.28
2023-04-02T00:27:19.106Z,98651.00
2023-04-02T00:29:54.154Z,98642.56
2023-04-02T00:32:26.620Z,98645.88
2023-04-02T00:34:54.478Z,98654.84
2023-04-02T00:37:24.167Z,98653.22
2023-04-02T00:39:53.055Z,98655.94
2023-04-02T00:42:20.655Z,98657.59
2023-04-02T00:44:49.422Z,98659.72
2023-04-02T00:47:27.635Z,98661.63
2023-04-02T00:50:23.958Z,98664.34
2023-04-02T00:52:52.006Z,98663.28
2023-04-02T00:55:36.617Z,98671.69
2023-04-02T00:58:04.579Z,98669.78
2023-04-02T01:00:34.151Z,98661.88
2023-04-02T01:03:16.910Z,98664.06
2023-04-02T01:06:18.852Z,98662.72
2023-04-02T01:08:53.036Z,98657.53
2023-04-02T01:11:36.515Z,98654.00
2023-04-02T01:14:28.863Z,98655.91
2023-04-02T01:17:18.702Z,98665.69
2023-04-02T01:19:52.664Z,98660.50
2023-04-02T01:22:51.065Z,98661.53
2023-04-02T01:25:32.517Z,98667.81
2023-04-02T01:28:39.053Z,98673.53
2023-04-02T01:31:06.616Z,98667.25
2023-04-02T01:33:34.507Z,98672.13
2023-04-02T01:36:19.990Z,98674.84
2023-04-02T01:38:53.814Z,98675.69
2023-04-02T01:41:31.222Z,98673.19
2023-04-02T01:44:10.312Z,98676.50
2023-04-02T01:46:40.390Z,98674.00
2023-04-02T01:49:16.791Z,98678.09
2023-04-02T01:51:45.982Z,98675.09
2023-04-02T01:54:16.300Z,98676.44
2023-04-02T01:56:44.102Z,98681.91
2023-04-02T01:59:12.255Z,98688.16
2023-04-02T02:01:51.932Z,98683.75
2023-04-02T02:04:19.777Z,98688.38
2023-04-02T02:06:47.192Z,98685.66
2023-04-02T02:09:23.208Z,98687.56
2023-04-02T02:11:51.451Z,98691.94
2023-04-02T02:14:22.836Z,98694.09
2023-04-02T02:16:50.489Z,98693.28
2023-04-02T02:19:28.713Z,98693.28
2023-04-02T02:22:18.145Z,98692.72
2023-04-02T02:24:46.188Z,98689.41
2023-04-02T02:27:34.436Z,98698.66
2023-04-02T02:30:06.473Z,98690.75
2023-04-02T02:32:34.126Z,98687.19
2023-04-02T02:35:13.050Z,98697.25
2023-04-02T02:37:42.383Z,98698.34
2023-04-02T02:40:20.617Z,98696.69
2023-04-02T02:42:51.187Z,98701.31
2023-04-02T02:45:21.466Z,98702.41
2023-04-02T02:47:48.887Z,98705.13
2023-04-02T02:50:21.705Z,98704.66
2023-04-02T02:52:54.480Z,98701.31
2023-04-02T02:55:24.403Z,98693.66
2023-04-02T02:57:58.452Z,98699.09
2023-04-02T03:00:26.588Z,98697.19
2023-04-02T03:02:55.122Z,98689.28
2023-04-02T03:05:27.914Z,98681.13
2023-04-02T03:07:56.462Z,98690.13
2023-04-02T03:10:35.412Z,98692.03
2023-04-02T03:13:21.902Z,98679.88
2023-04-02T03:16:00.833Z,98689.28
2023-04-02T03:19:10.224Z,98693.09
2023-04-02T03:21:53.282Z,98696.88
2023-04-02T03:24:29.739Z,98690.37
2023-04-02T03:27:11.512Z,98696.06
2023-04-02T03:30:02.097Z,98700.44
2023-04-02T03:32:32.999Z,98692.50
2023-04-02T03:35:26.953Z,98704.47
2023-04-02T03:38:21.011Z,98696.31
2023-04-02T03:41:00.793Z,98703.41
2023-04-02T03:43:34.940Z,98706.37
2023-04-02T03:46:31.621Z,98709.94
2023-04-02T03:49:08.338Z,98717.00
2023-04-02T03:51:39.625Z,98713.47
2023-04-02T03:54:11.249Z,98714.81
2023-04-02T03:56:41.972Z,98713.72
2023-04-02T03:59:25.031Z,98715.38
2023-04-02T04:02:15.561Z,98713.72
2023-04-02T04:04:44.696Z,98715.88
2023-04-02T04:07:30.268Z,98716.94
2023-04-02T04:09:57.976Z,98724.03
2023-04-02T04:12:42.488Z,98727.56
2023-04-02T04:15:12.835Z,98729.25
2023-04-02T04:17:53.965Z,98736.59
2023-04-02T04:20:28.098Z,98732.19
2023-04-02T04:22:56.319Z,98735.72
2023-04-02T04:25:29.927Z,98743.91
2023-04-02T04:28:42.713Z,98741.44
2023-04-02T04:31:18.004Z,98738.22
2023-04-02T04:33:50.555Z,98737.91
2023-04-02T04:36:30.800Z,98740.34
2023-04-02T04:39:00.446Z,98749.34
2023-04-02T04:41:31.045Z,98757.34
2023-04-02T04:44:18.660Z,98756.69
2023-04-02T04:46:53.495Z,98761.09
2023-04-02T04:49:41.595Z,98754.22
2023-04-02T04:52:21.683Z,98759.41
2023-04-02T04:54:49.253Z,98758.59
2023-04-02T04:57:34.246Z,98753.97
2023-04-02T05:00:12.982Z,98758.03
2023-04-02T05:03:04.236Z,98752.31
2023-04-02T05:05:33.549Z,98758.91
2023-04-02T05:08:14.572Z,98760.22
2023-04-02T05:11:05.716Z,98763.53
2023-04-02T05:13:52.295Z,98761.38
2023-04-02T05:16:33.684Z,98760.56
2023-04-02T05:19:30.202Z,98762.47
2023-04-02T05:22:33.331Z,98763.88
2023-04-02T05:25:23.746Z,98777.72
2023-04-02T05:28:11.435Z,98773.94
2023-04-02T05:30:49.645Z,98774.75
2023-04-02T05:33:21.224Z,98774.16
2023-04-02T05:35:53.616Z,98785.06
2023-04-02T05:38:24.643Z,98774.44
2023-04-02T05:40:59.443Z,98777.72
2023-04-02T05:43:27.162Z,98784.25
2023-04-02T05:45:56.243Z,98790.28
2023-04-02T05:48:33.601Z,98794.88
2023-04-02T05:51:01.704Z,98782.94
2023-04-02T05:53:34.317Z,98793.00
2023-04-02T05:56:06.700Z,98799.50
2023-04-02T05:58:55.942Z,98795.47
2023-04-02T06:01:25.456Z,98798.94
2023-04-02T06:04:25.022Z,98799.19
2023-04-02T06:07:16.617Z,98793.50
2023-04-02T06:10:03.515Z,98798.59
2023-04-02T06:12:40.543Z,98796.97
2023-04-02T06:15:19.569Z,98799.94
2023-04-02T06:18:22.837Z,98807.03
2023-04-02T06:20:51.630Z,98801.31
2023-04-02T06:23:38.270Z,98807.84
2023-04-02T06:26:16.781Z,98809.97
2023-04-02T06:29:02.489Z,98813.53
2023-04-02T06:31:34.131Z,98819.00
2023-04-02T06:34:04.860Z,98820.84
2023-04-02T06:36:33.652Z,98822.53
2023-04-02T06:39:05.934Z,98819.37
2023-04-02T06:41:34.186Z,98831.00
2023-04-02T06:44:07.406Z,98828.78
2023-04-02T06:46:57.567Z,98837.78
2023-04-02T06:49:38.344Z,98828.78
2023-04-02T06:52:19.344Z,98830.44
2023-04-02T06:54:46.991Z,98829.88
2023-04-02T06:57:17.166Z,98830.69
2023-04-02T06:59:45.189Z,98829.63
2023-04-02T07:02:35.928Z,98838.59
2023-04-02T07:05:06.903Z,98826.63
2023-04-02T07:07:35.205Z,98828.78
2023-04-02T07:10:02.994Z,98829.63
2023-04-02T07:12:30.932Z,98833.16
2023-04-02T07:14:58.377Z,98830.44
2023-04-02T07:17:26.206Z,98832.91
2023-04-02T07:19:54.025Z,98834.81
2023-04-02T07:22:22.195Z,98843.78
2023-04-02T07:24:49.811Z,98849.00
2023-04-02T07:27:17.656Z,98851.47
2023-04-02T07:29:45.100Z,98852.03
2023-04-02T07:32:12.738Z,98845.53
2023-04-02T07:34:41.252Z,98848.25
2023-04-02T07:37:12.303Z,98849.91
2023-04-02T07:39:40.749Z,98853.44
2023-04-02T07:42:08.291Z,98855.91
2023-04-02T07:44:35.775Z,98859.44
2023-04-02T07:47:03.594Z,98855.91
2023-04-02T07:49:31.099Z,98863.03
2023-04-02T07:51:58.992Z,98854.84
2023-04-02T07:54:27.280Z,98865.75
2023-04-02T07:56:54.780Z,98859.22
2023-04-02T07:59:22.500Z,98870.94
2023-04-02T08:01:52.266Z,98867.94
2023-04-02T08:04:21.756Z,98861.12
2023-04-02T08:06:49.566Z,98864.66
2023-04-02T08:09:17.059Z,98873.06
2023-04-02T08:11:46.732Z,98875.78
2023-04-02T08:14:14.410Z,98877.69
2023-04-02T08:16:46.146Z,98878.84
2023-04-02T08:19:14.068Z,98885.94
2023-04-02T08:21:41.872Z,98892.22
2023-04-02T08:24:09.507Z,98888.66
2023-04-02T08:26:37.358Z,98894.69
2023-04-02T08:29:04.841Z,98889.81
2023-04-02T08:31:32.368Z,98897.75
2023-04-02T08:34:00.244Z,98891.22
2023-04-02T08:36:33.697Z,98899.12
2023-04-02T08:39:01.979Z,98904.31
2023-04-02T08:41:31.150Z,98899.94
2023-04-02T08:44:20.396Z,98907.03
2023-04-02T08:47:04.765Z,98900.84
2023-04-02T08:49:35.035Z,98903.56
2023-04-02T08:52:02.879Z,98915.81
2023-04-02T08:54:34.885Z,98910.34
2023-04-02T08:57:19.326Z,98916.38
2023-04-02T08:59:48.005Z,98924.31
2023-04-02T09:02:36.206Z,98921.59
2023-04-02T09:05:06.126Z,98919.69
2023-04-02T09:07:34.160Z,98927.03
2023-04-02T09:10:01.678Z,98923.50
2023-04-02T09:12:30.488Z,98920.75
2023-04-02T09:15:07.257Z,98925.34
2023-04-02T09:17:46.343Z,98926.22
2023-04-02T09:20:21.350Z,98931.66
2023-04-02T09:22:51.083Z,98928.09
2023-04-02T09:25:22.947Z,98929.59
2023-04-02T09:27:51.227Z,98930.56
2023-04-02T09:30:22.901Z,98929.97
2023-04-02T09:32:54.593Z,98935.69
2023-04-02T09:35:26.849Z,98939.50
2023-04-02T09:38:17.650Z,98935.13
2023-04-02T09:40:49.749Z,98941.13
2023-04-02T09:43:19.829Z,98940.56
2023-04-02T09:45:58.349Z,98940.78
2023-04-02T09:48:31.187Z,98952.50
2023-04-02T09:51:13.425Z,98946.25
2023-04-02T09:53:42.703Z,98951.69
2023-04-02T09:56:14.663Z,98953.59
2023-04-02T09:58:42.586Z,98953.59
2023-04-02T10:01:35.311Z,98957.37
2023-04-02T10:04:04.394Z,98968.84
2023-04-02T10:06:32.915Z,98960.12
2023-04-02T10:09:27.530Z,98965.00
2023-04-02T10:11:55.490Z,98957.37
2023-04-02T10:14:25.870Z,98956.81
2023-04-02T10:16:58.089Z,98952.44
2023-04-02T10:19:36.311Z,98953.50
2023-04-02T10:22:06.782Z,98951.03
2023-04-02T10:24:34.507Z,98945.59
2023-04-02T10:27:22.608Z,98950.22
2023-04-02T10:30:05.234Z,98949.16
2023-04-02T10:32:36.279Z,98950.22
2023-04-02T10:35:25.571Z,98947.50
2023-04-02T10:37:59.071Z,98948.53
2023-04-02T10:41:03.669Z,98945.00
2023-04-02T10:43:52.684Z,98942.88
2023-04-02T10:46:37.172Z,98940.38
2023-04-02T10:49:43.487Z,98939.00
2023-04-02T10:52:19.121Z,98946.34
2023-04-02T11:33:33.894Z,98925.47
2023-04-02T11:36:25.767Z,98930.66
2023-04-02T11:38:54.910Z,98929.00
2023-04-02T11:42:02.213Z,98922.47
2023-04-02T11:44:30.737Z,98925.78
2023-04-02T11:47:21.959Z,98925.19
2023-04-02T11:49:56.169Z,98924.72
2023-04-02T11:52:25.020Z,98929.09
2023-04-02T11:54:57.061Z,98925.78
2023-04-02T11:57:46.877Z,98930.16
2023-04-02T12:00:37.920Z,98916.28
2023-04-02T12:03:31.213Z,98914.97
2023-04-02T12:06:10.729Z,98915.47
2023-04-02T12:09:04.832Z,98916.56
2023-04-02T12:11:34.407Z,98910.28
2023-04-02T12:14:07.342Z,98907.56
2023-04-02T12:16:35.118Z,98914.91
2023-04-02T12:19:03.445Z,98907.81
2023-04-02T12:21:31.222Z,98908.63
2023-04-02T12:23:59.211Z,98907.81
2023-04-02T12:26:37.677Z,98904.25
2023-04-02T12:29:28.745Z,98903.19
2023-04-02T12:31:57.820Z,98890.41
2023-04-02T12:34:27.273Z,98883.53
2023-04-02T12:37:02.411Z,98889.00
2023-04-02T12:39:33.964Z,98886.84
2023-04-02T12:42:01.665Z,98885.78
2023-04-02T12:44:32.648Z,98884.97
2023-04-02T12:47:00.724Z,98884.97
2023-04-02T12:49:37.120Z,98883.63
2023-04-02T12:52:06.975Z,98890.47
2023-04-02T12:54:37.302Z,98869.78
2023-04-02T12:57:28.090Z,98883.38
2023-04-02T13:00:06.243Z,98885.59
2023-04-02T13:02:44.838Z,98881.47
2023-04-02T13:05:12.433Z,98883.13
2023-04-02T13:07:42.080Z,98886.66
2023-04-02T13:10:24.352Z,98880.97
2023-04-02T13:13:02.032Z,98876.12
2023-04-02T13:15:34.457Z,98874.22
2023-04-02T13:18:05.922Z,98888.09
2023-04-02T13:20:37.537Z,98890.56
2023-04-02T13:23:32.123Z,98881.06
2023-04-02T13:26:13.283Z,98883.03
2023-04-02T13:28:41.074Z,98889.34
2023-04-02T13:31:17.694Z,98883.63
2023-04-02T13:33:46.012Z,98892.38
2023-04-02T13:36:15.137Z,98894.53
2023-04-02T13:38:42.654Z,98901.06
2023-04-02T13:41:22.553Z,98904.59
2023-04-02T13:43:54.334Z,98905.16
2023-04-02T13:46:24.113Z,98904.34
2023-04-02T13:48:52.306Z,98901.06
2023-04-02T13:51:21.347Z,98906.50
2023-04-02T13:53:50.799Z,98898.56
2023-04-02T13:56:19.513Z,98896.09
2023-04-02T13:58:48.818Z,98908.63
2023-04-02T14:01:18.622Z,98904.28
2023-04-02T14:03:53.755Z,98900.12
2023-04-02T14:06:45.479Z,98889.09
2023-04-02T14:09:32.393Z,98885.47
2023-04-02T14:12:22.807Z,98889.47
2023-04-02T14:15:21.828Z,98887.22
2023-04-02T14:18:07.834Z,98898.38
2023-04-02T14:20:54.209Z,98883.94
2023-04-02T14:23:53.752Z,98893.19
2023-04-02T14:26:24.114Z,98883.38
2023-04-02T14:29:04.349Z,98885.50
2023-04-02T14:31:54.485Z,98877.34
2023-04-02T14:34:30.642Z,98874.06
2023-04-02T14:37:02.072Z,98886.59
2023-04-02T14:39:35.894Z,98896.94
2023-04-02T14:42:17.388Z,98904.00
2023-04-02T14:44:50.971Z,98907.56
2023-04-02T14:47:28.283Z,98909.69
2023-04-02T14:49:58.861Z,98921.44
2023-04-02T14:52:27.460Z,98924.38
2023-04-02T14:55:05.847Z,98920.84
2023-04-02T14:57:38.709Z,98927.09
2023-04-02T15:00:25.054Z,98937.16
2023-04-02T15:03:20.027Z,98937.16
2023-04-02T15:05:53.100Z,98939.06
2023-04-02T15:08:33.097Z,98947.50
2023-04-02T15:11:16.440Z,98935.53
2023-04-02T15:13:49.725Z,98938.25
2023-04-02T15:16:27.102Z,98943.94
2023-04-02T15:18:56.466Z,98940.16
2023-04-02T15:21:43.435Z,98941.22
2023-04-02T15:24:27.639Z,98948.31
2023-04-02T15:27:25.008Z,98946.41
2023-04-02T15:30:36.989Z,98953.50
2023-04-02T15:33:26.937Z,98975.28
2023-04-02T15:36:03.297Z,98970.09
2023-04-02T15:38:38.235Z,98981.22
2023-04-02T15:41:28.218Z,98983.94
2023-04-02T15:44:03.520Z,98980.16
2023-04-02T15:46:44.265Z,98986.66
2023-04-02T15:49:46.548Z,98982.28
2023-04-02T15:52:20.419Z,98992.09
2023-04-02T15:55:09.765Z,98995.09
2023-04-02T15:58:35.747Z,98993.44
2023-04-02T16:01:23.715Z,98999.22
2023-04-02T16:04:18.176Z,98999.12
2023-04-02T16:07:16.818Z,98994.75
2023-04-02T16:10:13.221Z,98997.81
2023-04-02T16:12:43.936Z,98999.12
2023-04-02T16:15:18.425Z,98988.47
2023-04-02T16:17:47.861Z,99000.19
2023-04-02T16:20:28.275Z,99000.78
2023-04-02T16:23:14.633Z,99010.34
2023-04-02T16:26:13.386Z,98993.78
2023-04-02T16:28:54.108Z,98999.22
2023-04-02T16:31:31.906Z,98993.53
2023-04-02T16:34:25.427Z,99000.63
2023-04-02T16:36:54.378Z,99001.44
2023-04-02T16:39:37.980Z,99000.13
2023-04-02T16:42:37.994Z,99011.03
2023-04-02T16:45:28.073Z,99020.59
2023-04-02T16:48:09.169Z,99026.03
2023-04-02T16:50:50.228Z,99022.47
2023-04-02T16:53:50.890Z,99031.00
2023-04-02T16:56:47.822Z,99033.72
2023-04-02T16:59:45.000Z,99046.84
2023-04-02T17:02:37.832Z,99045.53
2023-04-02T17:05:29.926Z,99057.25
2023-04-02T17:08:20.409Z,99062.69
2023-04-02T17:10:59.223Z,99060.59
2023-04-02T17:13:42.102Z,99079.88
2023-04-02T17:16:32.378Z,99076.66
2023-04-02T17:19:01.082Z,99081.38
2023-04-02T17:21:30.422Z,99086.19
2023-04-02T17:24:17.538Z,99086.34
2023-04-02T17:26:49.542Z,99090.97
2023-04-02T17:29:22.463Z,99101.87
2023-04-02T17:31:53.476Z,99102.91
2023-04-02T17:34:24.767Z,99116.87
2023-04-02T17:37:21.499Z,99112.25
2023-04-02T17:40:07.493Z,99120.22
2023-04-02T17:42:37.018Z,99125.41
2023-04-02T17:45:17.226Z,99134.41
2023-04-02T17:48:03.220Z,99137.13
2023-04-02T17:50:38.779Z,99129.53
2023-04-02T17:53:40.549Z,99142.09
2023-04-02T17:56:28.266Z,99136.12
2023-04-02T17:59:06.457Z,99144.06
2023-04-02T18:01:50.879Z,99144.31
2023-04-02T18:04:23.950Z,99154.37
2023-04-02T18:07:37.289Z,99159.81
2023-04-02T18:10:21.161Z,99164.78
2023-04-02T18:12:58.572Z,99170.25
2023-04-02T18:15:58.634Z,99177.81
2023-04-02T18:18:41.131Z,99180.31
2023-04-02T18:21:21.720Z,99181.72
2023-04-02T18:24:15.473Z,99192.28
2023-04-02T18:26:59.321Z,99191.44
2023-04-02T18:29:38.805Z,99209.69
2023-04-02T18:32:29.844Z,99208.87
2023-04-02T18:35:29.237Z,99212.19
2023-04-02T18:38:22.737Z,99217.63
2023-04-02T18:41:11.329Z,99211.38
2023-04-02T18:44:08.639Z,99212.41
2023-04-02T18:46:54.809Z,99218.94
2023-04-02T18:49:37.649Z,99232.31
2023-04-02T18:52:14.979Z,99233.63
2023-04-02T18:55:17.687Z,99241.00
2023-04-02T18:57:49.151Z,99241.25
2023-04-02T19:00:28.070Z,99256.50
2023-04-02T19:03:53.325Z,99261.97
2023-04-02T19:06:29.452Z,99267.97
2023-04-02T19:09:10.603Z,99275.59
2023-04-02T19:11:40.096Z,99274.97
2023-04-02T19:14:14.389Z,99279.38
2023-04-02T19:16:47.728Z,99278.53
2023-04-02T19:19:27.966Z,99292.16
2023-04-02T19:22:19.436Z,99287.56
2023-04-02T19:25:03.427Z,99291.09
2023-04-02T19:28:01.591Z,99300.09
2023-04-02T19:31:01.067Z,99300.94
2023-04-02T19:33:37.080Z,99309.34
2023-04-02T19:36:27.011Z,99309.81
2023-04-02T19:39:10.229Z,99313.63
2023-04-02T19:41:54.023Z,99312.56
2023-04-02T19:44:24.409Z,99316.34
2023-04-02T19:46:53.573Z,99324.53
2023-04-02T19:49:33.434Z,99316.09
2023-04-02T19:52:01.854Z,99325.91
2023-04-02T19:54:30.597Z,99319.28
2023-04-02T19:57:02.150Z,99318.34
2023-04-02T19:59:34.210Z,99328.44
2023-04-02T20:02:07.535Z,99335.75
2023-04-02T20:04:37.597Z,99325.91
2023-04-02T20:07:06.064Z,99330.91
2023-04-02T20:09:34.517Z,99332.78
2023-04-02T20:12:03.799Z,99346.41
2023-04-02T20:14:32.704Z,99350.22
2023-04-02T20:17:01.759Z,99354.81
2023-04-02T20:19:30.615Z,99353.16
2023-04-02T20:21:58.632Z,99353.16
2023-04-02T20:24:27.455Z,99362.41
2023-04-02T20:26:56.799Z,99368.94
2023-04-02T20:29:28.546Z,99368.09
2023-04-02T20:31:56.583Z,99374.59
2023-04-02T20:34:26.233Z,99370.84
2023-04-02T20:36:54.263Z,99372.12
2023-04-02T20:39:22.043Z,99379.12
2023-04-02T20:41:50.211Z,99377.31
2023-04-02T20:44:17.921Z,99377.00
2023-04-02T20:46:46.400Z,99376.16
2023-04-02T20:49:14.188Z,99382.66
2023-04-02T20:52:19.668Z,99384.81
2023-04-02T20:54:47.988Z,99385.38
2023-04-02T20:57:15.962Z,99391.34
2023-04-02T20:59:43.508Z,99397.59
2023-04-02T21:02:11.351Z,99403.88
2023-04-02T21:04:38.835Z,99405.16
2023-04-02T21:07:06.370Z,99413.13
2023-04-02T21:09:34.156Z,99408.72
2023-04-02T21:12:01.600Z,99411.69
2023-04-02T21:14:31.495Z,99413.59
2023-04-02T21:16:59.061Z,99417.13
2023-04-02T21:19:27.125Z,99423.31
2023-04-02T21:21:55.851Z,99420.69
2023-04-02T21:24:23.791Z,99431.00
2023-04-02T21:26:51.240Z,99436.44
2023-04-02T21:29:18.734Z,99439.38
2023-04-02T21:31:46.590Z,99434.16
2023-04-02T21:34:14.960Z,99437.72
2023-04-02T21:36:47.021Z,99434.16
2023-04-02T21:39:22.190Z,99440.44
2023-04-02T21:41:50.745Z,99445.88
2023-04-02T21:44:21.456Z,99453.22
2023-04-02T21:46:49.866Z,99453.22
2023-04-02T21:49:20.069Z,99454.03
2023-04-02T21:51:47.765Z,99455.38
2023-04-02T21:54:15.590Z,99464.38
2023-04-02T21:56:44.580Z,99460.81
2023-04-02T21:59:13.030Z,99464.56
2023-04-02T22:01:47.106Z,99467.31
2023-04-02T22:04:17.215Z,99468.97
2023-04-02T22:06:44.800Z,99474.66
2023-04-02T22:09:14.137Z,99475.47
2023-04-02T22:11:44.095Z,99475.72
2023-04-02T22:14:11.671Z,99470.28
2023-04-02T22:16:39.361Z,99482.00
2023-04-02T22:19:08.758Z,99483.06
2023-04-02T22:21:36.272Z,99476.78
2023-04-02T22:24:04.729Z,99481.16
2023-04-02T22:26:32.557Z,99484.97
2023-04-02T22:29:00.273Z,99484.13
2023-04-02T22:31:29.335Z,99481.41
2023-04-02T22:33:57.430Z,99481.63
2023-04-02T22:36:25.857Z,99486.03
2023-04-02T22:38:53.278Z,99482.34
2023-04-02T22:41:23.241Z,99493.72
2023-04-02T22:43:50.733Z,99490.37
2023-04-02T22:46:18.503Z,99505.06
2023-04-02T22:48:46.855Z,99509.91
2023-04-02T22:51:15.993Z,99503.84
2023-04-02T22:53:43.520Z,99510.38
2023-04-02T22:56:15.454Z,99516.66
2023-04-02T22:58:42.983Z,99516.06
2023-04-02T23:01:13.325Z,99508.97
2023-04-02T23:03:40.675Z,99513.56
2023-04-02T23:06:09.819Z,99516.78
2023-04-02T23:08:37.829Z,99513.34
2023-04-02T23:11:16.583Z,99520.91
2023-04-02T23:13:44.363Z,99522.78
2023-04-02T23:16:13.046Z,99521.13
2023-04-02T23:18:41.149Z,99521.97
2023-04-02T23:21:09.009Z,99518.41
2023-04-02T23:23:36.624Z,99520.31
2023-04-02T23:26:11.156Z,99519.47
2023-04-02T23:28:39.074Z,99519.47
2023-04-02T23:31:07.846Z,99521.59
2023-04-02T23:33:35.473Z,99521.59
2023-04-02T23:36:10.809Z,99529.53
2023-04-02T23:38:38.346Z,99526.00
2023-04-02T23:41:06.059Z,99531.44
2023-04-02T23:43:33.493Z,99532.28
2023-04-02T23:46:01.113Z,99537.72
2023-04-02T23:48:28.853Z,99542.34
2023-04-02T23:50:56.344Z,99535.81
2023-04-02T23:53:23.775Z,99532.28
2023-04-02T23:55:51.543Z,99536.87
2023-04-02T23:58:19.047Z,99538.75
